createdAt,value
2018-11-07T00:00:00.769Z,17.73
2018-11-07T00:02:30.061Z,19.67
2018-11-07T00:04:59.179Z,16.50
2018-11-07T00:07:27.967Z,15.63
2018-11-07T00:09:56.748Z,17.93
2018-11-07T00:12:25.483Z,15.03
2018-11-07T00:14:54.183Z,18.90
2018-11-07T00:17:23.082Z,16.90
2018-11-07T00:19:52.021Z,15.40
2018-11-07T00:22:20.767Z,17.33
2018-11-07T00:24:49.519Z,14.93
2018-11-07T00:27:18.232Z,20.17
2018-11-07T00:29:46.952Z,19.43
2018-11-07T00:32:15.667Z,16.70
2018-11-07T00:34:44.400Z,18.50
2018-11-07T00:37:13.228Z,16.80
2018-11-07T00:39:41.927Z,16.23
2018-11-07T00:42:10.673Z,17.27
2018-11-07T00:44:39.404Z,17.20
2018-11-07T00:47:08.220Z,15.97
2018-11-07T00:49:37.035Z,15.57
2018-11-07T00:52:05.850Z,16.50
2018-11-07T00:54:34.611Z,15.83
2018-11-07T00:57:03.333Z,19.80
2018-11-07T00:59:32.035Z,15.73
2018-11-07T01:02:00.740Z,18.90
2018-11-07T01:04:29.491Z,18.73
2018-11-07T01:06:58.248Z,18.20
2018-11-07T01:09:27.081Z,16.40
2018-11-07T01:11:55.779Z,16.20
2018-11-07T01:14:26.584Z,16.70
2018-11-07T01:16:55.460Z,15.93
2018-11-07T01:19:24.611Z,14.60
2018-11-07T01:21:53.372Z,14.30
2018-11-07T01:24:22.228Z,14.80
2018-11-07T01:26:50.971Z,14.50
2018-11-07T01:29:19.679Z,16.87
2018-11-07T01:31:48.380Z,16.73
2018-11-07T01:34:17.105Z,15.40
2018-11-07T01:36:45.820Z,15.03
2018-11-07T01:39:14.524Z,15.27
2018-11-07T01:41:43.647Z,15.10
2018-11-07T01:44:12.299Z,14.43
2018-11-07T01:46:41.020Z,15.60
2018-11-07T01:49:09.723Z,15.83
2018-11-07T01:51:38.665Z,15.77
2018-11-07T01:54:07.485Z,15.03
2018-11-07T01:56:36.231Z,14.37
2018-11-07T01:59:05.371Z,14.10
2018-11-07T02:01:34.189Z,15.33
2018-11-07T02:04:02.899Z,15.60
2018-11-07T02:06:31.599Z,15.23
2018-11-07T02:09:01.048Z,15.37
2018-11-07T02:11:29.747Z,17.10
2018-11-07T02:13:59.778Z,15.80
2018-11-07T02:16:28.471Z,15.53
2018-11-07T02:18:57.187Z,16.00
2018-11-07T02:21:26.061Z,16.00
2018-11-07T02:23:54.783Z,15.03
2018-11-07T02:26:23.549Z,14.07
2018-11-07T02:28:52.183Z,16.90
2018-11-07T02:31:20.897Z,14.47
2018-11-07T02:33:49.604Z,16.20
2018-11-07T02:36:18.356Z,15.23
2018-11-07T02:38:47.051Z,17.30
2018-11-07T02:41:15.815Z,15.83
2018-11-07T02:43:44.534Z,15.27
2018-11-07T02:46:13.867Z,17.53
2018-11-07T02:48:42.605Z,17.07
2018-11-07T02:51:13.392Z,13.93
2018-11-07T02:53:42.097Z,15.40
2018-11-07T02:56:10.875Z,18.53
2018-11-07T02:58:39.584Z,17.30
2018-11-07T03:01:08.706Z,18.47
2018-11-07T03:03:37.359Z,17.00
2018-11-07T03:06:06.081Z,14.77
2018-11-07T03:08:34.928Z,19.53
2018-11-07T03:11:04.418Z,16.00
2018-11-07T03:13:33.569Z,16.13
2018-11-07T03:16:02.345Z,16.90
2018-11-07T03:18:31.096Z,18.23
2018-11-07T03:20:59.791Z,16.27
2018-11-07T03:23:28.489Z,17.10
2018-11-07T03:25:57.247Z,15.47
2018-11-07T03:28:25.991Z,13.70
2018-11-07T03:30:54.716Z,14.17
2018-11-07T03:33:23.452Z,15.33
2018-11-07T03:35:52.183Z,13.90
2018-11-07T03:38:21.041Z,12.80
2018-11-07T03:40:49.720Z,14.07
2018-11-07T03:43:18.457Z,15.83
2018-11-07T03:45:52.604Z,15.70
2018-11-07T03:48:21.336Z,15.83
2018-11-07T03:50:50.044Z,14.17
2018-11-07T03:53:18.974Z,17.33
2018-11-07T03:55:47.590Z,12.93
2018-11-07T03:58:16.603Z,13.53
2018-11-07T04:00:45.304Z,15.60
2018-11-07T04:03:14.144Z,14.90
2018-11-07T04:05:42.849Z,14.00
2018-11-07T04:08:11.816Z,15.30
2018-11-07T04:10:40.576Z,15.37
2018-11-07T04:13:09.422Z,14.13
2018-11-07T04:15:38.325Z,13.30
2018-11-07T04:18:07.125Z,12.50
2018-11-07T04:20:36.566Z,16.07
2018-11-07T04:23:05.544Z,17.63
2018-11-07T04:25:34.844Z,13.83
2018-11-07T04:28:03.774Z,14.70
2018-11-07T04:30:32.471Z,13.43
2018-11-07T04:33:01.191Z,13.63
2018-11-07T04:35:29.908Z,13.23
2018-11-07T04:37:58.636Z,16.30
2018-11-07T04:40:27.349Z,13.40
2018-11-07T04:42:56.056Z,13.00
2018-11-07T04:45:24.793Z,12.97
2018-11-07T04:47:53.493Z,12.60
2018-11-07T04:50:22.199Z,14.20
2018-11-07T04:52:51.084Z,14.50
2018-11-07T04:55:19.804Z,13.73
2018-11-07T04:57:48.520Z,13.20
2018-11-07T05:00:17.295Z,13.73
2018-11-07T05:02:47.253Z,12.53
2018-11-07T05:05:15.953Z,13.33
2018-11-07T05:07:44.700Z,12.30
2018-11-07T05:10:13.447Z,12.80
2018-11-07T05:12:42.933Z,11.90
2018-11-07T05:15:11.628Z,13.20
2018-11-07T05:17:40.458Z,10.77
2018-11-07T05:20:10.151Z,12.23
2018-11-07T05:22:38.877Z,12.43
2018-11-07T05:25:09.963Z,15.27
2018-11-07T05:27:38.852Z,12.20
2018-11-07T05:30:08.464Z,13.63
2018-11-07T05:32:37.297Z,12.60
2018-11-07T05:35:06.333Z,11.90
2018-11-07T05:37:35.132Z,50.00
2018-11-07T05:40:04.249Z,13.20
2018-11-07T05:42:32.944Z,13.30
2018-11-07T05:45:02.461Z,12.30
2018-11-07T05:47:31.155Z,11.87
2018-11-07T05:50:00.138Z,12.93
2018-11-07T05:52:28.824Z,16.00
2018-11-07T05:54:57.516Z,12.50
2018-11-07T05:57:26.221Z,12.07
2018-11-07T05:59:54.923Z,12.87
2018-11-07T06:02:23.639Z,12.43
2018-11-07T06:04:53.496Z,11.23
2018-11-07T06:07:22.300Z,13.70
2018-11-07T06:09:51.049Z,12.00
2018-11-07T06:12:19.886Z,12.50
2018-11-07T06:14:48.828Z,13.90
2018-11-07T06:17:17.520Z,12.97
2018-11-07T06:19:46.256Z,17.83
2018-11-07T06:22:14.959Z,14.77
2018-11-07T06:24:43.748Z,13.27
2018-11-07T06:27:12.559Z,13.03
2018-11-07T06:29:41.293Z,14.77
2018-11-07T06:32:09.995Z,12.00
2018-11-07T06:34:39.144Z,13.83
2018-11-07T06:37:07.856Z,17.30
2018-11-07T06:39:37.697Z,13.63
2018-11-07T06:42:06.391Z,13.13
2018-11-07T06:44:35.124Z,12.93
2018-11-07T06:47:03.812Z,16.87
2018-11-07T06:49:34.839Z,12.40
2018-11-07T06:52:03.547Z,15.07
2018-11-07T06:54:32.262Z,12.80
2018-11-07T06:57:00.963Z,13.03
2018-11-07T06:59:30.592Z,12.77
2018-11-07T07:01:59.376Z,12.83
2018-11-07T07:04:28.140Z,16.87
2018-11-07T07:06:56.918Z,15.67
2018-11-07T07:09:25.623Z,16.73
2018-11-07T07:11:54.331Z,13.00
2018-11-07T07:14:23.244Z,16.67
2018-11-07T07:16:51.972Z,12.30
2018-11-07T07:19:20.774Z,11.57
2018-11-07T07:21:49.533Z,13.60
2018-11-07T07:24:18.259Z,10.17
2018-11-07T07:26:46.977Z,10.83
2018-11-07T07:29:15.682Z,9.40
2018-11-07T07:31:44.380Z,8.60
2018-11-07T07:34:13.295Z,7.53
2018-11-07T07:36:42.000Z,9.40
2018-11-07T07:39:10.721Z,8.23
2018-11-07T07:41:39.484Z,8.67
2018-11-07T07:44:08.175Z,7.93
2018-11-07T07:46:37.043Z,9.43
2018-11-07T07:49:05.879Z,8.13
2018-11-07T07:51:34.574Z,10.23
2018-11-07T07:54:03.397Z,8.60
2018-11-07T07:56:32.129Z,7.30
2018-11-07T07:59:00.784Z,6.77
2018-11-07T08:01:29.529Z,6.60
2018-11-07T08:03:58.615Z,7.87
2018-11-07T08:06:27.315Z,6.63
2018-11-07T08:08:56.025Z,6.43
2018-11-07T08:11:24.744Z,6.37
2018-11-07T08:13:53.509Z,7.60
2018-11-07T08:16:22.207Z,8.50
2018-11-07T08:18:50.905Z,6.97
2018-11-07T08:21:19.709Z,5.67
2018-11-07T08:23:48.396Z,4.47
2018-11-07T08:26:17.108Z,4.43
2018-11-07T08:28:45.801Z,5.90
2018-11-07T08:31:14.508Z,4.80
2018-11-07T08:33:43.230Z,4.00
2018-11-07T08:36:12.092Z,4.40
2018-11-07T08:38:40.797Z,6.03
2018-11-07T08:41:09.519Z,3.80
2018-11-07T08:43:38.247Z,3.57
2018-11-07T08:46:07.332Z,7.07
2018-11-07T08:48:36.182Z,4.50
2018-11-07T08:51:05.092Z,5.87
2018-11-07T08:53:34.044Z,6.20
2018-11-07T08:56:02.767Z,4.40
2018-11-07T08:58:31.586Z,3.67
2018-11-07T09:01:00.384Z,4.53
2018-11-07T09:03:29.139Z,5.00
2018-11-07T09:05:57.844Z,4.73
2018-11-07T09:08:26.563Z,3.60
2018-11-07T09:10:55.328Z,4.30
2018-11-07T09:13:24.068Z,5.57
2018-11-07T09:15:52.834Z,4.23
2018-11-07T09:18:21.636Z,6.00
2018-11-07T09:20:50.327Z,4.87
2018-11-07T09:23:19.086Z,3.20
2018-11-07T09:25:47.815Z,5.13
2018-11-07T09:28:16.519Z,3.57
2018-11-07T09:30:45.238Z,4.73
2018-11-07T09:33:13.952Z,4.10
2018-11-07T09:35:42.652Z,5.00
2018-11-07T09:38:11.340Z,5.97
2018-11-07T09:40:40.035Z,7.80
2018-11-07T09:43:08.807Z,5.70
2018-11-07T09:45:37.499Z,4.50
2018-11-07T09:48:07.175Z,3.53
2018-11-07T09:50:35.818Z,5.07
2018-11-07T09:53:04.748Z,3.30
2018-11-07T09:55:33.442Z,4.43
2018-11-07T09:58:02.588Z,3.10
2018-11-07T10:00:31.371Z,3.23
2018-11-07T10:03:00.093Z,2.47
2018-11-07T10:05:28.848Z,2.53
2018-11-07T10:07:57.640Z,3.10
2018-11-07T10:10:26.416Z,2.50
2018-11-07T10:12:55.132Z,3.23
2018-11-07T10:15:23.852Z,3.20
2018-11-07T10:17:52.615Z,3.13
2018-11-07T10:20:22.769Z,2.83
2018-11-07T10:22:51.751Z,4.73
2018-11-07T10:25:20.672Z,3.43
2018-11-07T10:27:49.750Z,2.10
2018-11-07T10:30:21.693Z,2.83
2018-11-07T10:32:50.866Z,3.20
2018-11-07T10:35:19.671Z,2.60
2018-11-07T10:37:49.558Z,3.53
2018-11-07T10:40:21.011Z,4.00
2018-11-07T10:42:49.777Z,2.20
2018-11-07T10:45:18.566Z,3.37
2018-11-07T10:47:47.981Z,3.93
2018-11-07T10:50:17.711Z,1.87
2018-11-07T10:52:46.915Z,2.17
2018-11-07T10:55:16.336Z,2.93
2018-11-07T10:57:45.364Z,3.10
2018-11-07T11:00:20.444Z,2.23
2018-11-07T11:02:54.603Z,2.60
2018-11-07T11:05:23.396Z,5.50
2018-11-07T11:07:52.212Z,2.10
2018-11-07T11:10:21.604Z,2.83
2018-11-07T11:12:50.329Z,3.00
2018-11-07T11:15:19.028Z,2.57
2018-11-07T11:17:47.779Z,7.47
2018-11-07T11:20:16.518Z,3.50
2018-11-07T11:22:45.287Z,2.03
2018-11-07T11:25:14.036Z,3.90
2018-11-07T11:27:42.780Z,3.03
2018-11-07T11:30:11.479Z,5.30
2018-11-07T11:32:40.294Z,3.63
2018-11-07T11:35:10.403Z,3.53
2018-11-07T11:37:39.289Z,2.23
2018-11-07T11:40:11.279Z,2.17
2018-11-07T11:42:40.779Z,2.07
2018-11-07T11:45:11.344Z,5.00
2018-11-07T11:47:40.433Z,2.73
2018-11-07T11:50:11.617Z,2.23
2018-11-07T11:52:41.701Z,4.50
2018-11-07T11:55:10.880Z,3.97
2018-11-07T11:57:40.192Z,4.23
2018-11-07T12:00:10.823Z,4.40
2018-11-07T12:02:39.269Z,3.30
2018-11-07T12:05:09.719Z,3.27
2018-11-07T12:07:38.851Z,2.50
2018-11-07T12:10:13.332Z,3.57
2018-11-07T12:12:42.267Z,2.07
2018-11-07T12:15:11.033Z,1.90
2018-11-07T12:17:39.834Z,2.77
2018-11-07T12:20:08.913Z,2.33
2018-11-07T12:22:37.644Z,3.50
2018-11-07T12:25:07.135Z,5.10
2018-11-07T12:27:35.852Z,3.10
2018-11-07T12:30:07.104Z,2.30
2018-11-07T12:32:35.860Z,3.87
2018-11-07T12:35:04.692Z,5.03
2018-11-07T12:37:33.410Z,4.30
2018-11-07T12:40:02.148Z,4.60
2018-11-07T12:42:31.001Z,2.53
2018-11-07T12:44:59.879Z,4.40
2018-11-07T12:47:28.779Z,2.10
2018-11-07T12:49:57.694Z,3.70
2018-11-07T12:52:26.336Z,2.70
2018-11-07T12:54:55.135Z,2.33
2018-11-07T12:57:24.483Z,4.00
2018-11-07T12:59:53.040Z,2.33
2018-11-07T13:02:21.786Z,3.80
2018-11-07T13:04:50.669Z,3.50
2018-11-07T13:07:19.368Z,3.23
2018-11-07T13:09:48.060Z,2.00
2018-11-07T13:12:17.195Z,2.20
2018-11-07T13:14:45.895Z,2.90
2018-11-07T13:17:14.712Z,1.77
2018-11-07T13:19:43.604Z,3.07
2018-11-07T13:22:12.319Z,2.23
2018-11-07T13:24:41.285Z,3.73
2018-11-07T13:27:10.002Z,2.10
2018-11-07T13:29:38.707Z,5.00
2018-11-07T13:32:07.516Z,3.03
2018-11-07T13:34:36.833Z,3.07
2018-11-07T13:37:05.823Z,1.90
2018-11-07T13:39:34.413Z,4.33
2018-11-07T13:42:03.139Z,4.43
2018-11-07T13:44:31.904Z,3.40
2018-11-07T13:47:00.588Z,2.73
2018-11-07T13:49:29.289Z,5.80
2018-11-07T13:51:58.036Z,2.80
2018-11-07T13:54:26.829Z,1.47
2018-11-07T13:56:55.576Z,2.43
2018-11-07T13:59:24.354Z,4.43
2018-11-07T14:01:52.996Z,3.83
2018-11-07T14:04:21.692Z,7.30
2018-11-07T14:06:50.436Z,2.90
2018-11-07T14:09:19.148Z,2.57
2018-11-07T14:11:47.884Z,3.80
2018-11-07T14:14:16.620Z,4.77
2018-11-07T14:16:45.473Z,4.43
2018-11-07T14:19:14.476Z,2.97
2018-11-07T14:21:43.172Z,3.83
2018-11-07T14:24:12.312Z,3.90
2018-11-07T14:26:41.116Z,2.77
2018-11-07T14:29:09.980Z,3.33
2018-11-07T14:31:38.776Z,2.60
2018-11-07T14:34:07.559Z,2.37
2018-11-07T14:36:36.380Z,2.40
2018-11-07T14:39:07.590Z,4.00
2018-11-07T14:41:36.260Z,3.73
2018-11-07T14:44:05.012Z,2.67
2018-11-07T14:46:33.744Z,2.23
2018-11-07T14:49:02.492Z,2.93
2018-11-07T14:51:31.252Z,2.50
2018-11-07T14:53:59.993Z,2.60
2018-11-07T14:56:28.707Z,3.93
2018-11-07T14:58:57.412Z,2.93
2018-11-07T15:01:26.118Z,2.60
2018-11-07T15:03:54.835Z,2.73
2018-11-07T15:06:23.603Z,3.10
2018-11-07T15:08:52.706Z,3.17
2018-11-07T15:11:21.458Z,2.70
2018-11-07T15:13:50.193Z,3.30
2018-11-07T15:16:18.899Z,4.03
2018-11-07T15:18:47.616Z,2.40
2018-11-07T15:21:16.384Z,3.93
2018-11-07T15:23:45.096Z,3.40
2018-11-07T15:26:13.815Z,1.80
2018-11-07T15:28:42.625Z,4.03
2018-11-07T15:31:11.344Z,3.87
2018-11-07T15:33:40.119Z,3.20
2018-11-07T15:36:08.940Z,2.07
2018-11-07T15:38:38.028Z,6.10
2018-11-07T15:41:06.767Z,3.53
2018-11-07T15:43:35.628Z,3.10
2018-11-07T15:46:04.252Z,3.50
2018-11-07T15:48:33.040Z,5.10
2018-11-07T15:51:07.305Z,4.30
2018-11-07T15:53:36.027Z,9.20
2018-11-07T15:56:05.399Z,5.00
2018-11-07T15:58:34.179Z,8.70
2018-11-07T16:01:02.936Z,3.80
2018-11-07T16:03:36.944Z,4.37
2018-11-07T16:06:05.714Z,3.80
2018-11-07T16:08:34.429Z,4.07
2018-11-07T16:11:03.139Z,6.60
2018-11-07T16:13:31.962Z,4.33
2018-11-07T16:16:00.645Z,9.37
2018-11-07T16:18:30.350Z,4.27
2018-11-07T16:20:59.022Z,3.50
2018-11-07T16:23:27.994Z,3.60
2018-11-07T16:25:56.652Z,4.17
2018-11-07T16:28:25.332Z,3.23
2018-11-07T16:30:54.085Z,2.50
2018-11-07T16:33:22.799Z,3.60
2018-11-07T16:35:51.589Z,3.77
2018-11-07T16:38:20.370Z,3.47
2018-11-07T16:40:49.899Z,3.03
2018-11-07T16:43:18.442Z,2.80
2018-11-07T16:45:47.164Z,3.67
2018-11-07T16:48:15.969Z,3.67
2018-11-07T16:50:44.639Z,3.70
2018-11-07T16:53:13.336Z,2.70
2018-11-07T16:58:17.452Z,4.07
2018-11-07T17:00:46.213Z,5.10
2018-11-07T17:03:14.943Z,5.50
2018-11-07T17:05:43.745Z,4.53
2018-11-07T17:08:12.448Z,4.10
2018-11-07T17:10:41.208Z,5.30
2018-11-07T17:13:09.907Z,3.33
2018-11-07T17:15:38.672Z,4.10
2018-11-07T17:18:07.336Z,5.57
2018-11-07T17:20:36.153Z,4.63
2018-11-07T17:23:05.005Z,4.77
2018-11-07T17:25:33.714Z,4.93
2018-11-07T17:28:02.417Z,3.90
2018-11-07T17:30:31.184Z,4.13
2018-11-07T17:32:59.913Z,3.03
2018-11-07T17:35:28.658Z,3.73
2018-11-07T17:37:57.421Z,4.60
2018-11-07T17:40:26.145Z,4.53
2018-11-07T17:42:54.859Z,5.50
2018-11-07T17:45:23.626Z,6.17
2018-11-07T17:47:52.744Z,4.80
2018-11-07T17:50:22.308Z,3.93
2018-11-07T17:52:51.720Z,3.50
2018-11-07T17:55:21.135Z,3.73
2018-11-07T17:57:49.961Z,4.63
2018-11-07T18:00:20.281Z,17.53
2018-11-07T18:02:49.042Z,4.10
2018-11-07T18:05:17.758Z,5.30
2018-11-07T18:07:46.517Z,3.90
2018-11-07T18:10:16.600Z,3.40
2018-11-07T18:12:45.665Z,4.00
2018-11-07T18:15:14.433Z,3.60
2018-11-07T18:17:43.169Z,13.80
2018-11-07T18:20:13.037Z,6.10
2018-11-07T18:22:41.841Z,6.77
2018-11-07T18:25:11.877Z,3.90
2018-11-07T18:27:40.884Z,5.13
2018-11-07T18:30:11.738Z,4.67
2018-11-07T18:32:40.945Z,6.83
2018-11-07T18:35:11.039Z,4.73
2018-11-07T18:37:39.712Z,6.43
2018-11-07T18:40:10.739Z,4.33
2018-11-07T18:42:39.947Z,8.40
2018-11-07T18:45:09.529Z,4.90
2018-11-07T18:47:38.913Z,3.90
2018-11-07T18:50:08.785Z,6.10
2018-11-07T18:52:37.475Z,5.40
2018-11-07T18:55:08.356Z,5.27
2018-11-07T18:57:37.087Z,3.90
2018-11-07T19:00:11.180Z,4.17
2018-11-07T19:02:40.393Z,3.87
2018-11-07T19:05:09.492Z,7.03
2018-11-07T19:07:38.403Z,4.27
2018-11-07T19:10:11.828Z,7.30
2018-11-07T19:12:40.691Z,5.90
2018-11-07T19:15:11.473Z,9.67
2018-11-07T19:17:41.408Z,5.00
2018-11-07T19:20:11.347Z,4.30
2018-11-07T19:22:40.118Z,4.73
2018-11-07T19:25:11.284Z,6.33
2018-11-07T19:27:40.024Z,6.37
2018-11-07T19:30:12.471Z,6.90
2018-11-07T19:32:41.597Z,5.57
2018-11-07T19:35:11.711Z,3.30
2018-11-07T19:37:40.504Z,5.10
2018-11-07T19:40:11.618Z,3.80
2018-11-07T19:42:40.482Z,3.07
2018-11-07T19:45:11.428Z,4.40
2018-11-07T19:47:40.244Z,4.53
2018-11-07T19:50:10.697Z,4.30
2018-11-07T19:52:39.434Z,3.90
2018-11-07T19:55:10.524Z,3.63
2018-11-07T19:57:39.439Z,4.70
2018-11-07T20:00:10.488Z,3.53
2018-11-07T20:02:39.199Z,3.37
2018-11-07T20:05:07.979Z,3.10
2018-11-07T20:07:37.502Z,3.53
2018-11-07T20:10:08.611Z,3.10
2018-11-07T20:12:37.577Z,3.73
2018-11-07T20:15:07.200Z,4.10
2018-11-07T20:17:36.001Z,3.03
2018-11-07T20:20:05.007Z,4.50
2018-11-07T20:22:33.751Z,3.80
2018-11-07T20:25:02.552Z,4.93
2018-11-07T20:27:31.597Z,4.53
2018-11-07T20:30:00.828Z,2.73
2018-11-07T20:32:29.933Z,2.67
2018-11-07T20:34:58.725Z,4.03
2018-11-07T20:37:28.270Z,3.87
2018-11-07T20:39:57.033Z,5.30
2018-11-07T20:42:25.747Z,2.70
2018-11-07T20:44:54.553Z,5.63
2018-11-07T20:47:23.272Z,4.80
2018-11-07T20:49:51.972Z,2.50
2018-11-07T20:52:20.683Z,2.80
2018-11-07T20:54:49.447Z,3.43
2018-11-07T20:57:18.103Z,4.13
2018-11-07T20:59:46.835Z,3.63
2018-11-07T21:02:15.588Z,3.80
2018-11-07T21:04:44.327Z,2.90
2018-11-07T21:07:13.038Z,4.70
2018-11-07T21:09:41.820Z,3.60
2018-11-07T21:12:10.541Z,3.23
2018-11-07T21:14:39.362Z,3.90
2018-11-07T21:17:08.301Z,5.13
2018-11-07T21:19:37.117Z,4.53
2018-11-07T21:22:08.899Z,5.30
2018-11-07T21:24:37.827Z,4.70
2018-11-07T21:27:06.718Z,3.43
2018-11-07T21:29:35.407Z,4.00
2018-11-07T21:32:04.849Z,4.00
2018-11-07T21:34:33.639Z,6.90
2018-11-07T21:37:02.426Z,7.00
2018-11-07T21:39:31.160Z,4.13
2018-11-07T21:42:00.089Z,5.00
2018-11-07T21:44:28.791Z,5.00
2018-11-07T21:46:57.536Z,6.47
2018-11-07T21:49:26.248Z,3.00
2018-11-07T21:51:54.980Z,5.80
2018-11-07T21:54:23.827Z,3.30
2018-11-07T21:56:52.522Z,5.50
2018-11-07T21:59:21.250Z,4.43
2018-11-07T22:01:50.308Z,7.73
2018-11-07T22:04:19.283Z,4.70
2018-11-07T22:06:48.072Z,3.87
2018-11-07T22:09:16.852Z,4.50
2018-11-07T22:11:46.009Z,6.03
2018-11-07T22:14:14.765Z,3.60
2018-11-07T22:16:43.455Z,8.27
2018-11-07T22:19:12.151Z,3.90
2018-11-07T22:21:40.848Z,3.20
2018-11-07T22:24:09.696Z,5.50
2018-11-07T22:26:38.264Z,4.40
2018-11-07T22:29:07.037Z,3.70
2018-11-07T22:31:35.749Z,5.20
2018-11-07T22:34:04.498Z,7.33
2018-11-07T22:36:33.191Z,4.70
2018-11-07T22:39:02.444Z,5.33
2018-11-07T22:41:31.125Z,2.90
2018-11-07T22:43:59.831Z,3.97
2018-11-07T22:46:28.553Z,3.67
2018-11-07T22:48:57.347Z,3.30
2018-11-07T22:51:26.255Z,3.37
2018-11-07T22:53:54.956Z,4.37
2018-11-07T22:56:23.667Z,3.60
2018-11-07T22:58:52.493Z,3.50
2018-11-07T23:01:21.192Z,3.07
2018-11-07T23:03:50.568Z,3.97
2018-11-07T23:06:19.236Z,4.60
2018-11-07T23:08:48.073Z,5.00
2018-11-07T23:11:16.784Z,4.00
2018-11-07T23:13:45.480Z,4.47
2018-11-07T23:16:14.201Z,3.23
2018-11-07T23:18:43.383Z,4.30
2018-11-07T23:21:12.084Z,7.23
2018-11-07T23:23:41.009Z,4.93
2018-11-07T23:26:09.716Z,5.63
2018-11-07T23:28:39.429Z,3.83
2018-11-07T23:31:08.266Z,6.53
2018-11-07T23:33:37.445Z,4.57
2018-11-07T23:36:06.285Z,5.30
2018-11-07T23:38:35.271Z,3.93
2018-11-07T23:41:11.022Z,6.33
2018-11-07T23:43:40.068Z,7.37
2018-11-07T23:46:08.760Z,4.37
2018-11-07T23:48:37.983Z,3.90
2018-11-07T23:51:06.756Z,4.70
2018-11-07T23:53:35.608Z,6.23
2018-11-07T23:56:04.388Z,4.43
2018-11-07T23:58:33.082Z,5.70
